WZZ1120 EPLB-LTAI
Flight info
| Callsign | WZZ1120 |
|---|---|
| Flight time | N/A |
| Altitude | 34000 |
| Route | LIBGA DCT ROBTU DCT KENIN/N0453F330 DCT KARIL DCT UPAMA/N0453F350 DCT ADORU UL606 CRD UL854 KOZLU |
| Aircraft | A321/M-SDE3FGHIRWY/LB1 |
Departure
| Time | 2026-04-30 14:22 |
|---|---|
| Airport | Lublin Airport (EPLB) |
Arrival
| Time | N/A |
|---|---|
| Airport | Antalya International Airport (LTAI) |
| Time | Latitude | Longitude | Altitude | Speed | Heading |
|---|---|---|---|---|---|
| 2026-04-30 13:45 | 51.23650 | 22.71486 | 642 ft | 0 kts | 167° |
| 2026-04-30 14:12 | 51.23660 | 22.71483 | 642 ft | 2 kts | 172° |
| 2026-04-30 14:13 | 51.23674 | 22.71478 | 642 ft | 2 kts | 165° |
| 2026-04-30 14:13 | 51.23689 | 22.71473 | 642 ft | 2 kts | 167° |
| 2026-04-30 14:13 | 51.23704 | 22.71468 | 642 ft | 2 kts | 185° |
| 2026-04-30 14:13 | 51.23718 | 22.71476 | 642 ft | 2 kts | 219° |
| 2026-04-30 14:14 | 51.23727 | 22.71495 | 642 ft | 1 kts | 250° |
| 2026-04-30 14:14 | 51.23729 | 22.71504 | 642 ft | 1 kts | 261° |
| 2026-04-30 14:14 | 51.23730 | 22.71509 | 642 ft | 0 kts | 258° |
| 2026-04-30 14:17 | 51.23729 | 22.71507 | 642 ft | 1 kts | 259° |
| 2026-04-30 14:17 | 51.23734 | 22.71483 | 642 ft | 4 kts | 304° |
| 2026-04-30 14:18 | 51.23778 | 22.71441 | 642 ft | 10 kts | 343° |
| 2026-04-30 14:18 | 51.23870 | 22.71405 | 642 ft | 16 kts | 347° |
| 2026-04-30 14:18 | 51.24040 | 22.71515 | 643 ft | 16 kts | 77° |
| 2026-04-30 14:19 | 51.24091 | 22.71869 | 642 ft | 16 kts | 78° |
| 2026-04-30 14:19 | 51.24116 | 22.72055 | 640 ft | 17 kts | 78° |
| 2026-04-30 14:19 | 51.24146 | 22.72248 | 638 ft | 18 kts | 76° |
| 2026-04-30 14:20 | 51.24175 | 22.72453 | 636 ft | 19 kts | 77° |
| 2026-04-30 14:20 | 51.24205 | 22.72668 | 633 ft | 20 kts | 78° |
| 2026-04-30 14:20 | 51.24263 | 22.73046 | 628 ft | 8 kts | 175° |
| 2026-04-30 14:21 | 51.24247 | 22.72972 | 629 ft | 7 kts | 258° |
| 2026-04-30 14:21 | 51.24236 | 22.72894 | 630 ft | 6 kts | 257° |
| 2026-04-30 14:21 | 51.24097 | 22.71907 | 642 ft | 107 kts | 257° |
| 2026-04-30 14:22 | 51.23888 | 22.70444 | 637 ft | 163 kts | 258° |
| 2026-04-30 14:22 | 51.23302 | 22.66521 | 1614 ft | 188 kts | 260° |
| 2026-04-30 14:22 | 51.22998 | 22.64572 | 2456 ft | 182 kts | 252° |
| 2026-04-30 14:23 | 51.20875 | 22.62311 | 3036 ft | 206 kts | 197° |
| 2026-04-30 14:23 | 51.17960 | 22.60986 | 3540 ft | 232 kts | 198° |
| 2026-04-30 14:24 | 51.14645 | 22.59379 | 4047 ft | 264 kts | 198° |
| 2026-04-30 14:24 | 51.12846 | 22.58492 | 4485 ft | 273 kts | 199° |
| 2026-04-30 14:25 | 51.09234 | 22.56611 | 5712 ft | 275 kts | 208° |
| 2026-04-30 14:25 | 51.06256 | 22.52896 | 6915 ft | 278 kts | 223° |
| 2026-04-30 14:26 | 51.03286 | 22.48867 | 7999 ft | 287 kts | 223° |
| 2026-04-30 14:26 | 51.01735 | 22.46777 | 8553 ft | 291 kts | 222° |
| 2026-04-30 14:26 | 50.98618 | 22.42593 | 9602 ft | 300 kts | 222° |
| 2026-04-30 14:27 | 50.97026 | 22.40463 | 10102 ft | 305 kts | 222° |
| 2026-04-30 14:27 | 50.95392 | 22.38275 | 10609 ft | 309 kts | 222° |
| 2026-04-30 14:27 | 50.93711 | 22.36029 | 10892 ft | 322 kts | 222° |
| 2026-04-30 14:28 | 50.90158 | 22.31286 | 11383 ft | 348 kts | 221° |
| 2026-04-30 14:28 | 50.88264 | 22.28765 | 11614 ft | 361 kts | 221° |
| 2026-04-30 14:28 | 50.86315 | 22.26173 | 11839 ft | 372 kts | 221° |
| 2026-04-30 14:28 | 50.84290 | 22.23525 | 12042 ft | 384 kts | 218° |
| 2026-04-30 14:29 | 50.79323 | 22.20286 | 12633 ft | 399 kts | 188° |
| 2026-04-30 14:29 | 50.73786 | 22.19153 | 13526 ft | 404 kts | 185° |
| 2026-04-30 14:30 | 50.65329 | 22.17481 | 14788 ft | 414 kts | 185° |
| 2026-04-30 14:31 | 50.59590 | 22.16286 | 15603 ft | 419 kts | 186° |
| 2026-04-30 14:31 | 50.53754 | 22.15056 | 16400 ft | 425 kts | 185° |
| 2026-04-30 14:31 | 50.50833 | 22.14440 | 16800 ft | 427 kts | 185° |
| 2026-04-30 14:32 | 50.44909 | 22.13193 | 17551 ft | 432 kts | 185° |
| 2026-04-30 14:32 | 50.41924 | 22.12565 | 17912 ft | 435 kts | 185° |
| 2026-04-30 14:32 | 50.38942 | 22.11941 | 18255 ft | 438 kts | 185° |
| 2026-04-30 14:33 | 50.35910 | 22.11304 | 18596 ft | 441 kts | 185° |
| 2026-04-30 14:33 | 50.29810 | 22.10026 | 19473 ft | 440 kts | 185° |
| 2026-04-30 14:33 | 50.26785 | 22.09393 | 19880 ft | 441 kts | 185° |
| 2026-04-30 14:34 | 50.23766 | 22.08764 | 20212 ft | 443 kts | 185° |
| 2026-04-30 14:34 | 50.20703 | 22.08127 | 20543 ft | 446 kts | 185° |
| 2026-04-30 14:34 | 50.17626 | 22.07486 | 20900 ft | 447 kts | 185° |
| 2026-04-30 14:34 | 50.14549 | 22.06846 | 21244 ft | 449 kts | 185° |
| 2026-04-30 14:35 | 50.08331 | 22.05556 | 21897 ft | 453 kts | 185° |
| 2026-04-30 14:35 | 50.05167 | 22.04901 | 22215 ft | 455 kts | 185° |
| 2026-04-30 14:35 | 50.02022 | 22.04251 | 22525 ft | 457 kts | 185° |
| 2026-04-30 14:36 | 49.98885 | 22.03604 | 22846 ft | 459 kts | 185° |
| 2026-04-30 14:36 | 49.95710 | 22.02949 | 23148 ft | 460 kts | 185° |
| 2026-04-30 14:36 | 49.92551 | 22.02298 | 23429 ft | 463 kts | 185° |
| 2026-04-30 14:36 | 49.89379 | 22.01646 | 23714 ft | 464 kts | 185° |
| 2026-04-30 14:37 | 49.86158 | 22.00984 | 23994 ft | 466 kts | 185° |
| 2026-04-30 14:37 | 49.82893 | 22.00312 | 24285 ft | 467 kts | 185° |
| 2026-04-30 14:37 | 49.79679 | 21.99653 | 24552 ft | 469 kts | 185° |
| 2026-04-30 14:37 | 49.76443 | 21.98990 | 24818 ft | 470 kts | 185° |
| 2026-04-30 14:38 | 49.73198 | 21.98327 | 25061 ft | 472 kts | 185° |
| 2026-04-30 14:38 | 49.69907 | 21.97656 | 25316 ft | 473 kts | 185° |
| 2026-04-30 14:38 | 49.66646 | 21.96991 | 25552 ft | 475 kts | 185° |
| 2026-04-30 14:38 | 49.63363 | 21.96323 | 25791 ft | 476 kts | 185° |
| 2026-04-30 14:39 | 49.60111 | 21.95663 | 26018 ft | 478 kts | 186° |
| 2026-04-30 14:39 | 49.56773 | 21.94986 | 26259 ft | 479 kts | 186° |
| 2026-04-30 14:39 | 49.53505 | 21.94324 | 26468 ft | 480 kts | 186° |
| 2026-04-30 14:40 | 49.46849 | 21.92977 | 26919 ft | 482 kts | 186° |
| 2026-04-30 14:40 | 49.43522 | 21.92305 | 27148 ft | 483 kts | 186° |
| 2026-04-30 14:40 | 49.40226 | 21.91640 | 27436 ft | 482 kts | 186° |
| 2026-04-30 14:40 | 49.36878 | 21.90966 | 27730 ft | 482 kts | 186° |
| 2026-04-30 14:41 | 49.33588 | 21.90304 | 28020 ft | 481 kts | 186° |
| 2026-04-30 14:41 | 49.30280 | 21.89640 | 28337 ft | 479 kts | 186° |
| 2026-04-30 14:41 | 49.26986 | 21.88978 | 28640 ft | 478 kts | 186° |
| 2026-04-30 14:41 | 49.23674 | 21.88314 | 28941 ft | 477 kts | 186° |
| 2026-04-30 14:42 | 49.20384 | 21.87657 | 29237 ft | 476 kts | 186° |
| 2026-04-30 14:42 | 49.17110 | 21.87003 | 29514 ft | 475 kts | 186° |
| 2026-04-30 14:42 | 49.13867 | 21.86357 | 29799 ft | 474 kts | 186° |
| 2026-04-30 14:42 | 49.10585 | 21.85703 | 30085 ft | 473 kts | 186° |
| 2026-04-30 14:43 | 49.07303 | 21.85050 | 30347 ft | 472 kts | 186° |
| 2026-04-30 14:43 | 49.04055 | 21.84405 | 30599 ft | 472 kts | 186° |
| 2026-04-30 14:43 | 49.00808 | 21.84039 | 30810 ft | 470 kts | 175° |
| 2026-04-30 14:43 | 48.97625 | 21.84893 | 31044 ft | 464 kts | 161° |
| 2026-04-30 14:44 | 48.94601 | 21.86439 | 31308 ft | 461 kts | 158° |
| 2026-04-30 14:44 | 48.91560 | 21.88088 | 31474 ft | 462 kts | 158° |
| 2026-04-30 14:44 | 48.88550 | 21.89710 | 31624 ft | 463 kts | 158° |
| 2026-04-30 14:44 | 48.85532 | 21.91308 | 31781 ft | 463 kts | 158° |
| 2026-04-30 14:45 | 48.82465 | 21.92906 | 31934 ft | 463 kts | 159° |
| 2026-04-30 14:45 | 48.79409 | 21.94481 | 32070 ft | 463 kts | 159° |
| 2026-04-30 14:45 | 48.76398 | 21.96021 | 32191 ft | 464 kts | 159° |
| 2026-04-30 14:45 | 48.73331 | 21.97583 | 32318 ft | 464 kts | 159° |
| 2026-04-30 14:46 | 48.70276 | 21.99133 | 32441 ft | 465 kts | 159° |
| 2026-04-30 14:46 | 48.67205 | 22.00689 | 32565 ft | 465 kts | 159° |
| 2026-04-30 14:46 | 48.64128 | 22.02244 | 32677 ft | 466 kts | 159° |
| 2026-04-30 14:46 | 48.61058 | 22.03795 | 32788 ft | 467 kts | 159° |
| 2026-04-30 14:47 | 48.57995 | 22.05340 | 32895 ft | 467 kts | 159° |
| 2026-04-30 14:47 | 48.54937 | 22.06880 | 32985 ft | 468 kts | 159° |
| 2026-04-30 14:47 | 48.48559 | 22.08893 | 33181 ft | 473 kts | 171° |
| 2026-04-30 14:48 | 48.45287 | 22.09530 | 33289 ft | 473 kts | 171° |
| 2026-04-30 14:48 | 48.42032 | 22.10136 | 33366 ft | 474 kts | 171° |
| 2026-04-30 14:48 | 48.35442 | 22.11361 | 33550 ft | 476 kts | 171° |
| 2026-04-30 14:49 | 48.28917 | 22.12739 | 33734 ft | 475 kts | 165° |
| 2026-04-30 14:49 | 48.22769 | 22.16210 | 33944 ft | 472 kts | 154° |
| 2026-04-30 14:50 | 48.16756 | 22.20225 | 34067 ft | 475 kts | 154° |
| 2026-04-30 14:50 | 48.13765 | 22.22198 | 34140 ft | 476 kts | 154° |
| 2026-04-30 14:51 | 48.07682 | 22.26158 | 34246 ft | 477 kts | 154° |
| 2026-04-30 14:51 | 48.04657 | 22.28111 | 34250 ft | 476 kts | 154° |
| 2026-04-30 14:52 | 47.95552 | 22.33950 | 34247 ft | 476 kts | 155° |
| 2026-04-30 14:52 | 47.86614 | 22.40317 | 34244 ft | 476 kts | 150° |
| 2026-04-30 14:53 | 47.77839 | 22.47219 | 34249 ft | 477 kts | 150° |
| 2026-04-30 14:54 | 47.66099 | 22.56296 | 34243 ft | 476 kts | 150° |
| 2026-04-30 14:55 | 47.57304 | 22.63043 | 34250 ft | 477 kts | 150° |
| 2026-04-30 14:56 | 47.45513 | 22.72041 | 34245 ft | 477 kts | 151° |
| 2026-04-30 14:57 | 47.36685 | 22.78749 | 34232 ft | 477 kts | 152° |
| 2026-04-30 14:58 | 47.24889 | 22.87672 | 34231 ft | 477 kts | 152° |
| 2026-04-30 14:58 | 47.16059 | 22.94326 | 34223 ft | 479 kts | 152° |
| 2026-04-30 15:00 | 47.01234 | 23.05432 | 34221 ft | 477 kts | 152° |
| 2026-04-30 15:01 | 46.89421 | 23.14235 | 34223 ft | 478 kts | 152° |
| 2026-04-30 15:01 | 46.80511 | 23.20848 | 34209 ft | 479 kts | 152° |
| 2026-04-30 15:02 | 46.74600 | 23.25223 | 34201 ft | 479 kts | 152° |
| 2026-04-30 15:03 | 46.59902 | 23.36047 | 34184 ft | 478 kts | 153° |
| 2026-04-30 15:04 | 46.45048 | 23.46921 | 34178 ft | 478 kts | 153° |
| 2026-04-30 15:06 | 46.30210 | 23.57713 | 34205 ft | 478 kts | 154° |
| 2026-04-30 15:07 | 46.18349 | 23.66295 | 34225 ft | 477 kts | 155° |
| 2026-04-30 15:08 | 46.06489 | 23.74834 | 34213 ft | 477 kts | 155° |
| 2026-04-30 15:09 | 45.91696 | 23.85426 | 34220 ft | 476 kts | 155° |
| 2026-04-30 15:10 | 45.79807 | 23.93896 | 34231 ft | 476 kts | 156° |
| 2026-04-30 15:11 | 45.62008 | 24.06496 | 34229 ft | 476 kts | 156° |
| 2026-04-30 15:13 | 45.47225 | 24.16898 | 34191 ft | 476 kts | 157° |
| 2026-04-30 15:14 | 45.26447 | 24.31408 | 34212 ft | 475 kts | 157° |
| 2026-04-30 15:17 | 44.99823 | 24.49832 | 34266 ft | 472 kts | 159° |
| 2026-04-30 15:19 | 44.76244 | 24.65986 | 34251 ft | 471 kts | 160° |